Servet Ana — TCMF7 — position and weather

sailwx.info

Track history (hours):
 
Tides and Currents Weather Stations Pressure Air Temp Water Temp Dewpoint Dewpoint Depression Visibility Wind Speed Wind Dir Waves Ship Positions

Servet Ana

Last reported at 2015-Jan-26 10:15 UTC. Time now 2015-Jan-29 04:24 UTC.
Position N 37°55' E 025°32'.

Length 178 m; draft 6.4 m.

Type: Ship. MMSI: 271042643.

Date/timePositionNaut miles runAvg speedWind from/ knotsBaromVisibWave heightAir tempDewpointWater temp
2015-Jan-26 10:15N 37°55' E 025°32'7 9.4
2015-Jan-26 09:33N 37°52' E 025°25'1212.0
2015-Jan-26 08:33N 37°47' E 025°11'1312.9
2015-Jan-26 07:33N 37°40' E 024°57'1413.7
2015-Jan-26 06:33N 37°31' E 024°44'  
2015-Jan-23 17:33N 36°27' E 014°26'1713.7
2015-Jan-23 16:19N 36°32' E 014°06'1013.6
2015-Jan-23 15:33N 36°35' E 013°53'1913.6
2015-Jan-23 14:12N 36°42' E 013°32'  
Track history (hours):
 
Tides and Currents Weather Stations Pressure Air Temp Water Temp Dewpoint Dewpoint Depression Visibility Wind Speed Wind Dir Waves Ship Positions

Servet Ana

Last reported at 2015-Jan-26 10:15 UTC. Time now 2015-Jan-29 04:24 UTC.
Position N 37°55' E 025°32'.

Length 178 m; draft 6.4 m.

Type: Ship. MMSI: 271042643.

Date/timePositionNaut miles runAvg speedWind from/ knotsBaromVisibWave heightAir tempDewpointWater temp
2015-Jan-26 10:15N 37°55' E 025°32'7 9.4
2015-Jan-26 09:33N 37°52' E 025°25'1212.0
2015-Jan-26 08:33N 37°47' E 025°11'1312.9
2015-Jan-26 07:33N 37°40' E 024°57'1413.7
2015-Jan-26 06:33N 37°31' E 024°44'  
2015-Jan-23 17:33N 36°27' E 014°26'1713.7
2015-Jan-23 16:19N 36°32' E 014°06'1013.6
2015-Jan-23 15:33N 36°35' E 013°53'1913.6
2015-Jan-23 14:12N 36°42' E 013°32'  

Dump ship's entire track history